Time;durP1;ratioP1;P1;durP2;ratioP2;P2;SDS_P1;SDS_P2;PMS_P1;PMS_P2;Temp;Humidity;BMP_temperature;BMP_pressure;BME280_temperature;BME280_humidity;BME280_pressure;Samples;Min_cycle;Max_cycle;Signal;HPM_P1;HPM_P2
2023/08/01 00:01:49;;;;;;;6.90;5.40;;;;;;;26.75;55.42;99981.14;108351;1278;22003;-70
2023/08/01 00:04:16;;;;;;;7.20;5.00;;;;;;;26.73;55.36;99983.99;108402;1282;21988;-58
2023/08/01 00:06:41;;;;;;;5.00;4.20;;;;;;;26.73;55.59;99981.14;108414;1275;21979;-59
2023/08/01 00:09:07;;;;;;;7.50;4.70;;;;;;;26.73;55.60;99978.25;108425;1277;21986;-59
2023/08/01 00:11:33;;;;;;;5.50;4.50;;;;;;;26.75;55.72;99973.96;108471;1277;21988;-59
2023/08/01 00:13:58;;;;;;;7.00;4.50;;;;;;;26.77;55.64;99974.55;108446;1281;21977;-69
2023/08/01 00:16:24;;;;;;;6.70;4.70;;;;;;;26.77;55.95;99973.59;108475;1281;22002;-65
2023/08/01 00:18:49;;;;;;;5.40;4.10;;;;;;;26.78;55.82;99974.25;108429;1280;21992;-69
2023/08/01 00:21:15;;;;;;;6.10;4.60;;;;;;;26.78;55.85;99973.33;108425;1276;21973;-69
2023/08/01 00:23:41;;;;;;;6.40;4.90;;;;;;;26.77;56.14;99974.13;108427;1281;21984;-62
2023/08/01 00:26:06;;;;;;;6.10;4.70;;;;;;;26.75;56.09;99976.33;108450;1276;22164;-69
2023/08/01 00:28:32;;;;;;;6.10;4.60;;;;;;;26.71;56.14;99976.66;108434;1281;21995;-69
2023/08/01 00:31:02;;;;;;;7.90;4.40;;;;;;;26.69;56.37;99971.02;108487;1281;21987;-59
2023/08/01 00:33:28;;;;;;;7.20;4.10;;;;;;;26.70;56.48;99968.81;108448;1282;21977;-69
2023/08/01 00:35:54;;;;;;;4.70;3.90;;;;;;;26.70;56.73;99968.59;108497;1277;21983;-69
2023/08/01 00:38:19;;;;;;;6.90;4.90;;;;;;;26.69;56.84;99968.02;108480;1278;21990;-59
2023/08/01 00:40:45;;;;;;;6.20;4.50;;;;;;;26.66;56.90;99971.63;108455;1280;22448;-60
2023/08/01 00:43:10;;;;;;;8.60;4.50;;;;;;;26.65;57.04;99975.54;108466;1277;21983;-59
2023/08/01 00:45:36;;;;;;;6.20;4.40;;;;;;;26.64;57.12;99977.43;108443;1280;22003;-59
2023/08/01 00:48:02;;;;;;;4.30;3.70;;;;;;;26.64;57.26;99978.69;108457;1280;22017;-69
2023/08/01 00:50:27;;;;;;;7.00;4.10;;;;;;;26.64;57.34;99978.90;108118;1282;21992;-69
2023/08/01 00:52:53;;;;;;;7.10;4.20;;;;;;;26.65;57.56;99981.67;108250;1280;21986;-58
2023/08/01 00:55:19;;;;;;;6.30;4.30;;;;;;;26.66;57.92;99980.12;108233;1283;21983;-68
2023/08/01 00:57:44;;;;;;;5.20;4.10;;;;;;;26.66;57.90;99980.27;108442;1281;21983;-59
2023/08/01 01:00:11;;;;;;;5.70;3.70;;;;;;;26.68;57.87;99981.39;108453;1274;21984;-69
2023/08/01 01:02:36;;;;;;;8.50;4.00;;;;;;;26.73;57.90;99982.05;108491;1280;21987;-59
2023/08/01 01:05:02;;;;;;;5.00;3.60;;;;;;;26.78;58.08;99983.98;108379;1275;21982;-66
2023/08/01 01:07:29;;;;;;;5.70;3.90;;;;;;;26.82;58.15;99985.40;108132;1280;21983;-71
2023/08/01 01:09:54;;;;;;;5.30;3.70;;;;;;;26.87;58.12;99985.95;108357;1282;21992;-60
2023/08/01 01:12:20;;;;;;;5.60;3.70;;;;;;;26.91;58.15;99986.11;108349;1281;22009;-60
2023/08/01 01:14:45;;;;;;;5.40;3.40;;;;;;;26.95;58.32;99983.45;108379;1273;22021;-70
2023/08/01 01:17:11;;;;;;;6.40;4.20;;;;;;;26.95;58.23;99983.05;108353;1282;21991;-60
2023/08/01 01:19:37;;;;;;;5.30;3.70;;;;;;;26.95;58.45;99983.25;108392;1277;22004;-60
2023/08/01 01:22:04;;;;;;;4.70;3.60;;;;;;;26.95;58.40;99984.10;108351;1277;21982;-61
2023/08/01 01:24:29;;;;;;;6.00;4.00;;;;;;;26.98;58.67;99986.19;108447;1282;21987;-61
2023/08/01 01:26:55;;;;;;;5.20;3.90;;;;;;;26.98;58.53;99985.83;108251;1283;22077;-70
2023/08/01 01:29:21;;;;;;;6.10;3.80;;;;;;;26.96;58.67;99987.33;108291;1276;22080;-70
2023/08/01 01:31:46;;;;;;;6.90;4.00;;;;;;;26.87;58.54;99981.38;108156;1273;21988;-70
2023/08/01 01:34:12;;;;;;;4.90;3.80;;;;;;;26.76;58.66;99974.90;108449;1282;21988;-70
2023/08/01 01:36:37;;;;;;;5.50;3.80;;;;;;;26.68;58.83;99970.81;108283;1280;21988;-69
2023/08/01 01:39:03;;;;;;;6.40;3.70;;;;;;;26.64;59.08;99974.59;108307;1282;21996;-59
2023/08/01 01:41:29;;;;;;;3.90;3.50;;;;;;;26.65;59.46;99972.86;108370;1277;21986;-70
2023/08/01 01:43:54;;;;;;;6.50;4.00;;;;;;;26.68;59.52;99972.55;108354;1282;21984;-60
2023/08/01 01:46:20;;;;;;;6.60;4.00;;;;;;;26.74;59.83;99972.41;108396;1281;23043;-69
2023/08/01 01:48:45;;;;;;;4.70;4.00;;;;;;;26.78;59.99;99970.95;108375;1277;21994;-70
2023/08/01 01:51:11;;;;;;;4.30;3.50;;;;;;;26.82;59.83;99974.30;108334;1271;22020;-69
2023/08/01 01:53:36;;;;;;;4.70;3.50;;;;;;;26.85;59.90;99976.20;108347;1282;21984;-59
2023/08/01 01:56:02;;;;;;;5.40;3.80;;;;;;;26.89;60.04;99981.96;108381;1282;21984;-59
2023/08/01 01:58:28;;;;;;;7.40;4.00;;;;;;;26.92;59.97;99982.05;108352;1280;21985;-59
2023/08/01 02:00:53;;;;;;;5.90;3.50;;;;;;;26.96;59.93;99985.13;108343;1277;21986;-70
2023/08/01 02:03:19;;;;;;;6.50;4.20;;;;;;;26.99;59.90;99983.92;108376;1281;21986;-68
2023/08/01 02:05:44;;;;;;;5.70;4.00;;;;;;;27.01;59.89;99984.31;108370;1276;21990;-70
2023/08/01 02:08:10;;;;;;;5.60;4.40;;;;;;;27.00;59.91;99986.04;108093;1282;22002;-59
2023/08/01 02:10:36;;;;;;;6.20;4.00;;;;;;;26.99;59.80;99990.46;108371;1276;21998;-69
2023/08/01 02:13:01;;;;;;;7.40;4.50;;;;;;;26.97;59.83;99995.52;108378;1277;21986;-59
2023/08/01 02:15:27;;;;;;;6.10;4.10;;;;;;;26.92;59.88;99993.44;108364;1276;21988;-59
2023/08/01 02:17:52;;;;;;;5.00;4.10;;;;;;;26.81;60.03;99992.19;108372;1273;21983;-60
2023/08/01 02:20:18;;;;;;;7.40;4.60;;;;;;;26.71;60.48;99988.84;108369;1277;22042;-59
2023/08/01 02:22:44;;;;;;;5.80;4.50;;;;;;;26.64;60.72;99986.08;108367;1282;23676;-70
2023/08/01 02:25:09;;;;;;;5.90;4.40;;;;;;;26.61;61.09;99984.71;108430;1277;21983;-70
2023/08/01 02:27:35;;;;;;;13.70;4.80;;;;;;;26.59;61.44;99987.04;108371;1274;22391;-66
2023/08/01 02:30:00;;;;;;;9.50;4.00;;;;;;;26.58;61.50;99983.70;108376;1276;21992;-69
2023/08/01 02:32:26;;;;;;;5.70;4.20;;;;;;;26.60;61.71;99984.58;108368;1274;21993;-59
2023/08/01 02:34:51;;;;;;;8.60;4.50;;;;;;;26.63;62.06;99984.73;108517;1281;21981;-59
2023/08/01 02:37:17;;;;;;;6.40;4.30;;;;;;;26.57;61.89;99986.26;108267;1283;21986;-71
2023/08/01 02:39:43;;;;;;;8.30;4.70;;;;;;;26.53;61.95;99987.00;108374;1282;22023;-60
2023/08/01 02:42:08;;;;;;;6.90;4.60;;;;;;;26.51;62.15;99984.31;108376;1276;22027;-61
2023/08/01 02:44:34;;;;;;;6.90;5.30;;;;;;;26.48;62.15;99982.23;108418;1282;22002;-60
2023/08/01 02:46:59;;;;;;;7.50;4.50;;;;;;;26.45;62.26;99976.52;108436;1274;23726;-70
2023/08/01 02:49:25;;;;;;;7.00;4.40;;;;;;;26.45;62.57;99974.20;108426;1282;21987;-70
2023/08/01 02:51:51;;;;;;;6.10;4.40;;;;;;;26.46;62.79;99972.52;108432;1277;22458;-60
2023/08/01 02:54:16;;;;;;;5.50;4.60;;;;;;;26.43;62.82;99974.36;108411;1278;21976;-70
2023/08/01 02:56:42;;;;;;;6.40;4.50;;;;;;;26.42;62.87;99973.84;108439;1277;21982;-59
2023/08/01 02:59:08;;;;;;;5.60;4.60;;;;;;;26.45;63.26;99977.04;108475;1276;22019;-59
2023/08/01 03:01:37;;;;;;;8.10;5.00;;;;;;;26.47;63.40;99979.60;108460;1281;21981;-70
2023/08/01 03:04:03;;;;;;;6.90;5.30;;;;;;;26.48;63.58;99980.92;108474;1276;21994;-70
2023/08/01 03:06:31;;;;;;;8.80;4.70;;;;;;;26.53;63.78;99986.23;108472;1276;21985;-70
2023/08/01 03:08:56;;;;;;;6.70;5.10;;;;;;;26.59;64.04;99985.01;108392;1275;22019;-71
2023/08/01 03:11:22;;;;;;;7.60;4.80;;;;;;;26.65;64.23;99983.61;108403;1281;23048;-59
2023/08/01 03:13:47;;;;;;;12.90;5.70;;;;;;;26.69;64.39;99982.05;108353;1281;22167;-59
2023/08/01 03:16:13;;;;;;;9.40;5.60;;;;;;;26.71;64.29;99983.80;108463;1275;21982;-59
2023/08/01 03:18:38;;;;;;;14.70;5.10;;;;;;;26.73;64.60;99981.64;108467;1277;21980;-70
2023/08/01 03:21:04;;;;;;;9.30;5.80;;;;;;;26.77;64.86;99983.70;108497;1281;21981;-58
2023/08/01 03:23:30;;;;;;;11.50;5.10;;;;;;;26.79;65.05;99984.55;108439;1277;21997;-59
2023/08/01 03:25:55;;;;;;;7.60;5.70;;;;;;;26.83;65.15;99984.81;108451;1277;22020;-71
2023/08/01 03:28:21;;;;;;;15.80;6.00;;;;;;;26.87;65.29;99986.80;108370;1280;23705;-59
2023/08/01 03:30:49;;;;;;;18.60;6.80;;;;;;;26.92;65.59;99989.62;108463;1276;21995;-70
2023/08/01 03:33:16;;;;;;;16.80;7.00;;;;;;;26.97;65.79;99990.45;108303;1280;22095;-59
2023/08/01 03:35:41;;;;;;;22.60;7.50;;;;;;;27.00;65.77;99991.22;108426;1274;22040;-69
2023/08/01 03:38:07;;;;;;;16.30;7.10;;;;;;;27.05;65.83;99998.58;108444;1277;21988;-70
2023/08/01 03:40:32;;;;;;;15.20;6.70;;;;;;;27.11;66.07;99992.52;108471;1282;21983;-58
2023/08/01 03:42:58;;;;;;;14.80;6.70;;;;;;;27.14;66.09;99994.52;108441;1281;21985;-70
2023/08/01 03:45:24;;;;;;;14.30;6.60;;;;;;;27.18;66.22;99993.64;108388;1281;22037;-71
2023/08/01 03:47:49;;;;;;;10.80;7.00;;;;;;;27.23;66.26;99991.64;108494;1277;22018;-59
2023/08/01 03:50:15;;;;;;;12.70;6.40;;;;;;;27.28;66.14;99988.31;108438;1274;22022;-70
2023/08/01 03:52:41;;;;;;;9.30;6.70;;;;;;;27.32;66.09;99990.28;108447;1270;21981;-70
2023/08/01 03:55:06;;;;;;;7.30;5.90;;;;;;;27.37;65.94;99991.84;108428;1277;22003;-70
2023/08/01 03:57:33;;;;;;;11.30;6.10;;;;;;;27.41;65.96;99988.71;108367;1274;23051;-58
2023/08/01 04:00:00;;;;;;;7.30;6.30;;;;;;;27.47;66.46;99987.65;108432;1281;21992;-58
2023/08/01 04:02:25;;;;;;;7.80;5.50;;;;;;;27.50;65.97;99985.28;108461;1276;21996;-71
2023/08/01 04:04:51;;;;;;;6.80;5.60;;;;;;;27.53;66.03;99986.31;108475;1282;21987;-70
2023/08/01 04:07:16;;;;;;;10.60;7.60;;;;;;;27.56;66.11;99988.54;108436;1282;21976;-71
2023/08/01 04:09:42;;;;;;;8.00;5.70;;;;;;;27.61;66.02;99994.38;108426;1277;21983;-59
2023/08/01 04:12:08;;;;;;;8.60;5.30;;;;;;;27.68;66.39;99996.27;108413;1281;21990;-71
2023/08/01 04:14:34;;;;;;;8.40;5.60;;;;;;;27.73;67.03;99997.56;108425;1281;23197;-72
2023/08/01 04:16:59;;;;;;;7.40;4.90;;;;;;;27.77;65.94;99999.98;108465;1277;21981;-59
2023/08/01 04:19:25;;;;;;;9.10;5.00;;;;;;;27.84;65.99;100000.23;108428;1282;21977;-73
2023/08/01 04:21:50;;;;;;;5.70;5.00;;;;;;;27.91;66.00;99998.46;108428;1281;21980;-71
2023/08/01 04:24:16;;;;;;;6.90;4.50;;;;;;;27.98;66.04;99998.92;108430;1270;22003;-59
2023/08/01 04:26:42;;;;;;;8.40;4.80;;;;;;;28.04;65.58;100000.98;108439;1281;21988;-70
2023/08/01 04:29:07;;;;;;;8.60;4.50;;;;;;;28.11;65.75;100001.60;108466;1280;22427;-59
2023/08/01 04:31:33;;;;;;;6.00;4.80;;;;;;;28.18;65.59;100000.41;108470;1281;22018;-58
2023/08/01 04:33:58;;;;;;;24.50;5.30;;;;;;;28.29;65.74;99996.11;108450;1276;21991;-61
2023/08/01 04:36:24;;;;;;;12.20;4.00;;;;;;;28.42;65.32;99997.46;108429;1273;21983;-70
2023/08/01 04:38:49;;;;;;;6.80;4.50;;;;;;;28.54;65.38;99992.59;108440;1276;21980;-59
2023/08/01 04:41:15;;;;;;;575.70;49.60;;;;;;;28.68;65.35;99992.14;108454;1281;21988;-59
2023/08/01 04:43:41;;;;;;;14.70;4.50;;;;;;;28.83;65.13;99993.52;108470;1281;21987;-59
2023/08/01 04:46:06;;;;;;;5.80;3.80;;;;;;;28.98;64.52;99993.16;108429;1281;21995;-59
2023/08/01 04:48:32;;;;;;;5.50;3.30;;;;;;;29.13;64.22;99993.68;108433;1281;21998;-59
2023/08/01 04:50:57;;;;;;;5.30;3.50;;;;;;;29.30;64.18;99990.38;108415;1274;22000;-70
2023/08/01 04:53:23;;;;;;;10.80;3.30;;;;;;;29.50;63.89;99993.21;108453;1276;21980;-71
2023/08/01 04:55:49;;;;;;;5.30;3.80;;;;;;;29.70;63.42;99998.79;108466;1280;21983;-70
2023/08/01 04:58:14;;;;;;;4.80;3.70;;;;;;;29.85;62.97;99997.92;108439;1280;21984;-60
2023/08/01 05:00:41;;;;;;;4.60;3.50;;;;;;;29.99;62.74;100004.49;108405;1277;21989;-60
2023/08/01 05:03:06;;;;;;;6.70;4.10;;;;;;;30.07;61.99;100006.00;108415;1277;21987;-61
2023/08/01 05:05:32;;;;;;;7.70;3.80;;;;;;;30.13;61.47;100010.27;108438;1281;21980;-71
2023/08/01 05:07:58;;;;;;;5.60;3.20;;;;;;;30.27;61.65;100009.64;108431;1281;21990;-60
2023/08/01 05:10:23;;;;;;;5.00;3.50;;;;;;;30.48;61.69;100010.42;108472;1281;21986;-69
2023/08/01 05:12:49;;;;;;;5.60;3.10;;;;;;;30.71;61.27;100010.48;108452;1277;21987;-71
2023/08/01 05:15:14;;;;;;;7.00;2.90;;;;;;;30.91;60.47;100009.04;108413;1278;22051;-63
2023/08/01 05:17:40;;;;;;;5.80;3.30;;;;;;;31.04;59.37;100007.90;108466;1282;21990;-72
2023/08/01 05:20:06;;;;;;;11.90;3.50;;;;;;;31.23;58.50;100010.16;108424;1282;21975;-74
2023/08/01 05:22:32;;;;;;;4.70;2.90;;;;;;;31.43;57.96;100012.76;108462;1277;21988;-60
2023/08/01 05:24:58;;;;;;;3.40;2.30;;;;;;;31.53;56.27;100008.61;108398;1280;21994;-70
2023/08/01 05:27:23;;;;;;;9.70;2.80;;;;;;;31.52;54.87;100008.40;108437;1280;21975;-60
2023/08/01 05:29:49;;;;;;;5.10;2.80;;;;;;;31.52;54.61;100009.70;108464;1281;21989;-70
2023/08/01 05:32:14;;;;;;;3.80;2.20;;;;;;;31.54;54.89;100012.31;108494;1281;21983;-67
2023/08/01 05:34:40;;;;;;;3.40;2.30;;;;;;;31.56;53.86;100008.63;108421;1276;21983;-58
2023/08/01 05:37:06;;;;;;;5.80;1.80;;;;;;;31.59;53.35;100010.50;108441;1281;21981;-68
2023/08/01 05:39:31;;;;;;;4.50;1.90;;;;;;;31.64;52.90;100009.63;108460;1276;21988;-59
2023/08/01 05:41:57;;;;;;;4.80;1.90;;;;;;;31.66;51.96;100008.82;108421;1276;22000;-59
2023/08/01 05:44:22;;;;;;;4.80;2.30;;;;;;;31.64;51.40;100010.73;108416;1276;21989;-58
2023/08/01 05:46:48;;;;;;;2.60;1.70;;;;;;;31.61;51.68;100012.33;108418;1274;21990;-59
2023/08/01 05:49:14;;;;;;;3.50;2.00;;;;;;;31.57;51.17;100013.62;108452;1276;21980;-64
2023/08/01 05:51:39;;;;;;;2.10;1.60;;;;;;;31.56;50.08;100017.02;108464;1280;21990;-68
2023/08/01 05:54:05;;;;;;;5.30;2.10;;;;;;;31.56;50.55;100021.89;108401;1281;23670;-59
2023/08/01 05:56:31;;;;;;;4.80;2.00;;;;;;;31.64;51.27;100015.98;108448;1276;21991;-59
2023/08/01 05:58:57;;;;;;;4.00;2.00;;;;;;;31.80;51.59;100017.07;108420;1276;21985;-59
2023/08/01 06:01:22;;;;;;;4.20;2.20;;;;;;;31.96;50.96;100015.69;108422;1281;22016;-69
2023/08/01 06:03:48;;;;;;;2.80;1.90;;;;;;;32.04;50.50;100016.54;108384;1281;23751;-59
2023/08/01 06:06:13;;;;;;;3.40;1.90;;;;;;;32.09;50.46;100015.69;108431;1281;21980;-60
2023/08/01 06:08:39;;;;;;;2.90;1.90;;;;;;;32.12;50.47;100014.65;108459;1277;21983;-59
2023/08/01 06:11:05;;;;;;;3.50;2.40;;;;;;;32.22;50.47;100014.10;108408;1277;21981;-70
2023/08/01 06:13:30;;;;;;;4.40;2.00;;;;;;;32.26;49.35;100012.34;108351;1278;22017;-59
2023/08/01 06:15:56;;;;;;;3.40;2.10;;;;;;;32.27;48.74;100010.60;108346;1282;21986;-69
2023/08/01 06:18:21;;;;;;;3.20;2.30;;;;;;;32.27;48.31;100007.73;108467;1280;21982;-70
2023/08/01 06:20:47;;;;;;;5.50;3.90;;;;;;;32.24;47.91;100004.03;108418;1277;21952;-69
2023/08/01 06:23:13;;;;;;;4.80;2.80;;;;;;;32.19;47.91;100003.27;108441;1280;21993;-68
2023/08/01 06:25:38;;;;;;;4.40;2.30;;;;;;;32.25;48.07;100002.00;108423;1276;21991;-69
2023/08/01 06:28:04;;;;;;;6.00;2.30;;;;;;;32.39;47.45;99997.91;108449;1281;21980;-59
2023/08/01 06:30:29;;;;;;;2.70;1.80;;;;;;;32.50;47.55;99995.98;108485;1281;22001;-70
2023/08/01 06:32:55;;;;;;;3.00;1.80;;;;;;;32.67;47.73;99995.38;108433;1274;22000;-69
2023/08/01 06:35:21;;;;;;;2.10;1.30;;;;;;;32.81;46.92;99995.33;108352;1281;22025;-59
2023/08/01 06:37:46;;;;;;;3.50;1.70;;;;;;;32.91;46.06;99995.80;108438;1273;21978;-59
2023/08/01 06:40:14;;;;;;;2.60;1.60;;;;;;;33.00;44.96;99992.24;108403;1277;21993;-69
2023/08/01 06:42:41;;;;;;;3.90;1.60;;;;;;;33.01;44.11;99990.84;108504;1277;21988;-60
2023/08/01 06:45:06;;;;;;;3.00;1.70;;;;;;;32.95;43.82;99990.27;108469;1272;21981;-70
2023/08/01 06:47:32;;;;;;;4.50;1.60;;;;;;;32.84;44.01;99989.34;108456;1273;21980;-69
2023/08/01 06:49:57;;;;;;;3.00;1.40;;;;;;;32.83;44.04;99984.02;108466;1277;21946;-70
2023/08/01 06:52:23;;;;;;;5.60;1.90;;;;;;;32.96;44.50;99986.14;108389;1281;24315;-60
2023/08/01 06:54:48;;;;;;;2.30;1.60;;;;;;;33.20;43.83;99986.13;108445;1280;21988;-72
2023/08/01 06:57:14;;;;;;;2.40;1.50;;;;;;;33.45;43.33;99983.82;108451;1277;21988;-60
2023/08/01 06:59:40;;;;;;;3.20;1.70;;;;;;;33.64;42.30;99978.91;108453;1276;22011;-68
2023/08/01 07:02:06;;;;;;;2.30;1.50;;;;;;;33.79;42.26;99980.35;108430;1281;21977;-69
2023/08/01 07:04:31;;;;;;;3.00;1.50;;;;;;;34.00;42.70;99982.58;108439;1281;21991;-69
2023/08/01 07:06:57;;;;;;;5.60;1.90;;;;;;;34.17;41.78;99984.58;108405;1281;22032;-59
2023/08/01 07:09:23;;;;;;;1.90;1.40;;;;;;;34.29;41.17;99980.69;108440;1281;21998;-69
2023/08/01 07:11:48;;;;;;;2.30;1.30;;;;;;;34.44;39.93;99985.11;108498;1281;22286;-60
2023/08/01 07:14:14;;;;;;;3.50;1.30;;;;;;;34.60;38.86;99984.04;108437;1274;21980;-59
2023/08/01 07:16:39;;;;;;;7.10;1.80;;;;;;;34.74;39.23;99984.41;108336;1280;21988;-60
2023/08/01 07:19:05;;;;;;;4.20;2.60;;;;;;;34.85;39.61;99983.19;108411;1277;21979;-60
2023/08/01 07:21:31;;;;;;;1.90;1.40;;;;;;;34.88;39.00;99983.06;108437;1281;21986;-71
2023/08/01 07:23:57;;;;;;;3.30;1.60;;;;;;;34.98;39.62;99978.63;108436;1275;21989;-60
2023/08/01 07:26:23;;;;;;;2.50;1.20;;;;;;;35.30;39.53;99982.52;108401;1276;21977;-70
2023/08/01 07:28:49;;;;;;;4.10;2.00;;;;;;;35.66;38.20;99980.05;108399;1280;21994;-60
2023/08/01 07:31:14;;;;;;;1.90;1.30;;;;;;;36.04;38.62;99983.66;108432;1276;21999;-71
2023/08/01 07:33:40;;;;;;;2.20;1.40;;;;;;;36.49;38.23;99981.33;108414;1281;22093;-60
2023/08/01 07:36:06;;;;;;;2.40;1.20;;;;;;;36.69;37.38;99973.16;108417;1281;22077;-60
2023/08/01 07:38:31;;;;;;;2.30;1.30;;;;;;;36.77;36.06;99973.92;108429;1281;21997;-60
2023/08/01 07:40:57;;;;;;;3.50;1.40;;;;;;;36.90;36.38;99973.80;108455;1281;21980;-60
2023/08/01 07:43:23;;;;;;;5.20;2.50;;;;;;;37.01;36.04;99974.48;108489;1281;21984;-60
2023/08/01 07:45:50;;;;;;;2.30;1.30;;;;;;;36.98;35.35;99977.39;108433;1276;22005;-60
2023/08/01 07:48:16;;;;;;;3.50;1.80;;;;;;;36.84;35.57;99981.58;108443;1281;22192;-61
2023/08/01 07:50:42;;;;;;;3.30;1.50;;;;;;;36.63;35.71;99981.57;108503;1280;21980;-69
2023/08/01 07:53:07;;;;;;;4.10;1.50;;;;;;;36.41;35.89;99981.29;108437;1281;21978;-69
2023/08/01 07:55:34;;;;;;;5.30;1.90;;;;;;;36.10;36.21;99981.70;108465;1276;21995;-60
2023/08/01 07:58:00;;;;;;;2.90;1.60;;;;;;;35.85;36.22;99982.79;108533;1281;21984;-60
2023/08/01 08:00:25;;;;;;;2.30;1.30;;;;;;;35.67;36.30;99979.19;108476;1276;21966;-61
2023/08/01 08:02:51;;;;;;;2.00;1.30;;;;;;;35.50;36.62;99982.94;108464;1281;21980;-69
2023/08/01 08:05:17;;;;;;;5.70;1.90;;;;;;;35.30;36.72;99980.73;108419;1276;23656;-70
2023/08/01 08:07:42;;;;;;;4.80;2.00;;;;;;;35.08;37.08;99979.58;108392;1276;21976;-61
2023/08/01 08:10:08;;;;;;;7.20;1.80;;;;;;;35.03;37.94;99979.10;108463;1276;21949;-60
2023/08/01 08:12:33;;;;;;;12.20;2.10;;;;;;;35.08;37.60;99979.84;108422;1276;22003;-60
2023/08/01 08:14:59;;;;;;;26.60;3.30;;;;;;;35.10;37.77;99974.44;108434;1277;22039;-59
2023/08/01 08:17:24;;;;;;;12.50;2.20;;;;;;;35.12;37.20;99972.83;108427;1280;21996;-69
2023/08/01 08:19:50;;;;;;;3.60;1.80;;;;;;;35.17;37.08;99972.25;108263;1281;21982;-68
2023/08/01 08:22:16;;;;;;;3.60;1.50;;;;;;;35.27;36.88;99972.92;108416;1280;21970;-68
2023/08/01 08:24:41;;;;;;;2.70;1.40;;;;;;;35.58;37.12;99965.05;108420;1276;22449;-63
2023/08/01 08:27:07;;;;;;;2.10;1.50;;;;;;;36.05;37.04;99962.26;108323;1281;21980;-60
2023/08/01 08:29:32;;;;;;;3.60;1.40;;;;;;;36.50;36.87;99961.89;108309;1273;21980;-69
2023/08/01 08:31:58;;;;;;;1.20;1.10;;;;;;;36.76;36.35;99956.90;108379;1280;22450;-61
2023/08/01 08:34:24;;;;;;;4.00;1.90;;;;;;;36.86;35.35;99954.72;109467;1273;21978;-66
2023/08/01 08:36:50;;;;;;;3.10;1.20;;;;;;;36.95;35.65;99952.38;108468;1280;21990;-61
2023/08/01 08:39:17;;;;;;;1.70;1.30;;;;;;;37.14;35.37;99947.92;108453;1277;21984;-60
2023/08/01 08:41:47;;;;;;;2.20;1.40;;;;;;;37.31;34.98;99947.60;108422;1281;21987;-61
2023/08/01 08:44:16;;;;;;;2.90;1.60;;;;;;;37.28;33.31;99944.72;108568;1282;23049;-70
2023/08/01 08:46:45;;;;;;;3.10;1.60;;;;;;;37.14;34.24;99948.21;108292;1282;22000;-69
2023/08/01 08:49:12;;;;;;;3.60;1.40;;;;;;;37.25;34.28;99946.19;108383;1282;21983;-70
2023/08/01 08:51:38;;;;;;;2.80;1.50;;;;;;;37.40;34.45;99944.90;108384;1281;21981;-61
2023/08/01 08:54:04;;;;;;;2.70;1.90;;;;;;;37.53;34.58;99945.80;108675;1277;21983;-61
2023/08/01 08:56:31;;;;;;;2.50;1.70;;;;;;;37.61;34.52;99940.79;108453;1276;21982;-61
2023/08/01 08:58:57;;;;;;;2.40;1.60;;;;;;;37.70;34.36;99937.18;108444;1277;21973;-70
2023/08/01 09:01:22;;;;;;;2.50;1.50;;;;;;;37.93;34.05;99938.63;108258;1277;21977;-61
2023/08/01 09:03:48;;;;;;;5.30;1.30;;;;;;;38.27;34.42;99937.70;108440;1281;21985;-72
2023/08/01 09:06:15;;;;;;;3.30;1.90;;;;;;;38.69;34.65;99938.89;108470;1280;21977;-62
2023/08/01 09:08:46;;;;;;;3.10;1.50;;;;;;;39.34;34.56;99935.61;108455;1281;21978;-71
2023/08/01 09:11:12;;;;;;;3.30;1.50;;;;;;;39.94;34.07;99934.02;108483;1281;22034;-61
2023/08/01 09:13:37;;;;;;;2.10;1.30;;;;;;;40.44;33.28;99936.25;108279;1282;21984;-61
2023/08/01 09:16:03;;;;;;;2.60;1.50;;;;;;;40.86;32.66;99936.00;108424;1281;21981;-70
2023/08/01 09:18:29;;;;;;;2.30;1.40;;;;;;;41.35;32.95;99938.08;108491;1280;21983;-61
2023/08/01 09:20:59;;;;;;;2.70;1.50;;;;;;;41.80;32.59;99936.23;108283;1282;22028;-70
2023/08/01 09:23:27;;;;;;;4.10;1.40;;;;;;;42.09;32.24;99939.25;108322;1273;22040;-62
2023/08/01 09:25:53;;;;;;;3.30;1.70;;;;;;;42.15;31.53;99938.82;108475;1280;21987;-62
2023/08/01 09:28:19;;;;;;;2.40;1.60;;;;;;;41.83;31.01;99939.41;108453;1276;21987;-72
2023/08/01 09:30:48;;;;;;;2.30;1.60;;;;;;;41.26;30.54;99942.73;108482;1276;21989;-70
2023/08/01 09:33:14;;;;;;;8.00;2.00;;;;;;;40.62;30.86;99942.57;108448;1280;22038;-71
2023/08/01 09:35:40;;;;;;;18.40;2.00;;;;;;;40.18;30.98;99939.16;108437;1277;21990;-71
2023/08/01 09:38:06;;;;;;;5.90;1.90;;;;;;;39.85;31.08;99940.92;108432;1277;22154;-62
2023/08/01 09:40:38;;;;;;;38.70;4.20;;;;;;;39.55;31.41;99939.63;108328;1281;22092;-70
2023/08/01 09:43:04;;;;;;;16.80;2.50;;;;;;;39.38;31.63;99940.44;108421;1280;22092;-61
2023/08/01 09:45:29;;;;;;;3.70;1.50;;;;;;;39.12;31.56;99936.10;108439;1281;22020;-62
2023/08/01 09:47:55;;;;;;;4.90;1.60;;;;;;;38.88;30.97;99931.35;108249;1282;21990;-61
2023/08/01 09:50:22;;;;;;;2.40;1.60;;;;;;;38.49;30.41;99929.56;108445;1282;21999;-70
2023/08/01 09:52:52;;;;;;;9.80;2.30;;;;;;;38.09;30.89;99926.37;108468;1276;21983;-70
2023/08/01 09:55:34;;;;;;;3.50;1.90;;;;;;;37.84;31.04;99924.20;108459;1281;21967;-69
2023/08/01 09:58:00;;;;;;;5.60;2.20;;;;;;;37.72;31.54;99925.56;108470;1273;21980;-71
2023/08/01 10:00:27;;;;;;;7.40;2.10;;;;;;;37.63;31.26;99927.91;108421;1281;21980;-61
2023/08/01 10:02:53;;;;;;;7.40;2.50;;;;;;;37.48;31.26;99927.08;108433;1276;22018;-70
2023/08/01 10:05:19;;;;;;;3.10;2.10;;;;;;;37.50;31.69;99926.16;108275;1277;21982;-61
2023/08/01 10:07:45;;;;;;;7.80;2.30;;;;;;;37.63;31.06;99924.58;108442;1281;21951;-72
2023/08/01 10:10:10;;;;;;;6.80;2.40;;;;;;;37.80;31.80;99918.98;108277;1281;21979;-71
2023/08/01 10:12:36;;;;;;;2.40;1.80;;;;;;;38.10;31.95;99918.00;108029;1274;21991;-71
2023/08/01 10:15:03;;;;;;;71.90;6.60;;;;;;;38.37;31.49;99916.02;108054;1282;21986;-60
2023/08/01 10:17:29;;;;;;;24.40;3.60;;;;;;;38.41;31.25;99917.48;108451;1274;21988;-71
2023/08/01 10:19:56;;;;;;;23.00;3.30;;;;;;;38.40;31.48;99913.23;108313;1282;21988;-62
2023/08/01 10:22:21;;;;;;;10.20;3.40;;;;;;;38.29;31.33;99914.11;108457;1280;22021;-75
2023/08/01 10:24:47;;;;;;;7.90;2.10;;;;;;;38.13;31.20;99910.70;108384;1281;22219;-60
2023/08/01 10:27:19;;;;;;;11.30;2.60;;;;;;;37.89;31.09;99911.73;108483;1276;21984;-74
2023/08/01 10:29:46;;;;;;;16.80;2.60;;;;;;;37.64;31.29;99913.73;108466;1282;21989;-71
2023/08/01 10:32:11;;;;;;;6.80;2.20;;;;;;;37.43;31.38;99911.43;108278;1277;21986;-73
2023/08/01 10:34:37;;;;;;;5.80;2.20;;;;;;;37.24;31.63;99911.79;108153;1282;21992;-73
2023/08/01 10:37:03;;;;;;;16.60;2.90;;;;;;;37.04;31.82;99912.30;108438;1276;21989;-60
2023/08/01 10:39:29;;;;;;;3.40;2.00;;;;;;;36.84;31.90;99912.40;108475;1277;21993;-60
2023/08/01 10:42:05;;;;;;;2.20;1.70;;;;;;;36.59;31.76;99914.78;108447;1281;21984;-60
2023/08/01 10:44:33;;;;;;;2.70;1.90;;;;;;;36.25;31.79;99916.94;108433;1281;21980;-60
2023/08/01 10:47:03;;;;;;;4.30;2.20;;;;;;;35.92;32.00;99918.67;108447;1270;22197;-71
2023/08/01 10:49:44;;;;;;;4.30;1.90;;;;;;;35.62;32.32;99919.69;108509;1276;21980;-71
2023/08/01 10:52:27;;;;;;;19.40;3.10;;;;;;;35.31;32.39;99914.98;108506;1277;23816;-74
2023/08/01 10:55:00;;;;;;;5.60;2.90;;;;;;;34.97;32.66;99915.45;108408;1277;21992;-60
2023/08/01 10:57:27;;;;;;;11.90;3.90;;;;;;;34.59;32.97;99917.27;108479;1282;21986;-60
2023/08/01 10:59:52;;;;;;;7.80;2.80;;;;;;;34.29;33.44;99918.43;108592;1281;23692;-61
2023/08/01 11:02:23;;;;;;;7.30;2.60;;;;;;;34.02;34.13;99915.80;108249;1276;21994;-64
2023/08/01 11:04:59;;;;;;;4.50;2.50;;;;;;;33.79;34.22;99913.73;108478;1280;21977;-61
2023/08/01 11:07:25;;;;;;;20.90;4.30;;;;;;;33.61;34.64;99911.79;108376;1270;21980;-69
2023/08/01 11:10:11;;;;;;;11.50;2.90;;;;;;;33.46;34.76;99904.48;108366;1276;21950;-63
2023/08/01 11:12:38;;;;;;;6.60;2.90;;;;;;;33.31;34.96;99899.28;109168;1276;21983;-61
2023/08/01 11:15:07;;;;;;;4.10;2.20;;;;;;;33.19;35.16;99896.30;108488;1281;21993;-69
2023/08/01 11:17:34;;;;;;;4.20;2.20;;;;;;;33.07;35.42;99896.91;108511;1273;22843;-60